sensor_id;sensor_type;location;lat;lon;timestamp;pressure;altitude;pressure_sealevel;temperature
53667;BMP280;39568;51.026;5.468;2023-03-17T00:01:15;99962.69;;;11.13
53667;BMP280;39568;51.026;5.468;2023-03-17T00:03:44;99973.06;;;11.16
53667;BMP280;39568;51.026;5.468;2023-03-17T00:06:14;99962.75;;;11.26
53667;BMP280;39568;51.026;5.468;2023-03-17T00:08:42;99967.72;;;11.35
53667;BMP280;39568;51.026;5.468;2023-03-17T00:11:13;99966.59;;;11.30
53667;BMP280;39568;51.026;5.468;2023-03-17T00:13:40;99960.31;;;11.28
53667;BMP280;39568;51.026;5.468;2023-03-17T00:16:12;99953.56;;;11.27
53667;BMP280;39568;51.026;5.468;2023-03-17T00:18:41;99946.78;;;11.26
53667;BMP280;39568;51.026;5.468;2023-03-17T00:21:10;99938.03;;;11.31
53667;BMP280;39568;51.026;5.468;2023-03-17T00:23:37;99938.75;;;11.13
53667;BMP280;39568;51.026;5.468;2023-03-17T00:26:04;99943.78;;;11.35
53667;BMP280;39568;51.026;5.468;2023-03-17T00:28:32;99924.41;;;11.48
53667;BMP280;39568;51.026;5.468;2023-03-17T00:31:00;99918.28;;;11.39
53667;BMP280;39568;51.026;5.468;2023-03-17T00:33:28;99909.84;;;11.35
53667;BMP280;39568;51.026;5.468;2023-03-17T00:35:57;99923.88;;;11.36
53667;BMP280;39568;51.026;5.468;2023-03-17T00:38:24;99923.16;;;11.35
53667;BMP280;39568;51.026;5.468;2023-03-17T00:40:52;99923.03;;;11.28
53667;BMP280;39568;51.026;5.468;2023-03-17T00:43:19;99934.13;;;11.32
53667;BMP280;39568;51.026;5.468;2023-03-17T00:45:47;99963.69;;;11.28
53667;BMP280;39568;51.026;5.468;2023-03-17T00:48:17;99951.34;;;11.31
53667;BMP280;39568;51.026;5.468;2023-03-17T00:50:45;99958.09;;;11.32
53667;BMP280;39568;51.026;5.468;2023-03-17T00:53:15;99963.94;;;11.30
53667;BMP280;39568;51.026;5.468;2023-03-17T00:55:43;99958.47;;;11.23
53667;BMP280;39568;51.026;5.468;2023-03-17T00:58:12;99948.03;;;11.25
53667;BMP280;39568;51.026;5.468;2023-03-17T01:00:40;99945.16;;;11.23
53667;BMP280;39568;51.026;5.468;2023-03-17T01:03:09;99929.91;;;11.23
53667;BMP280;39568;51.026;5.468;2023-03-17T01:05:37;99928.63;;;11.11
53667;BMP280;39568;51.026;5.468;2023-03-17T01:08:04;99937.81;;;11.10
53667;BMP280;39568;51.026;5.468;2023-03-17T01:10:31;99928.91;;;11.08
53667;BMP280;39568;51.026;5.468;2023-03-17T01:12:58;99936.53;;;11.17
53667;BMP280;39568;51.026;5.468;2023-03-17T01:15:27;99920.84;;;11.13
53667;BMP280;39568;51.026;5.468;2023-03-17T01:17:56;99920.41;;;11.09
53667;BMP280;39568;51.026;5.468;2023-03-17T01:20:26;99919.94;;;10.92
53667;BMP280;39568;51.026;5.468;2023-03-17T01:22:54;99933.59;;;11.02
53667;BMP280;39568;51.026;5.468;2023-03-17T01:25:21;99924.22;;;10.95
53667;BMP280;39568;51.026;5.468;2023-03-17T01:27:48;99931.00;;;10.96
53667;BMP280;39568;51.026;5.468;2023-03-17T01:30:27;99936.88;;;10.89
53667;BMP280;39568;51.026;5.468;2023-03-17T01:32:54;99930.63;;;10.87
53667;BMP280;39568;51.026;5.468;2023-03-17T01:35:24;99927.13;;;10.78
53667;BMP280;39568;51.026;5.468;2023-03-17T01:37:52;99926.31;;;10.84
53667;BMP280;39568;51.026;5.468;2023-03-17T01:40:21;99917.88;;;10.79
53667;BMP280;39568;51.026;5.468;2023-03-17T01:42:51;99908.53;;;10.73
53667;BMP280;39568;51.026;5.468;2023-03-17T01:48:23;99918.97;;;10.71
53667;BMP280;39568;51.026;5.468;2023-03-17T01:50:52;99905.84;;;10.78
53667;BMP280;39568;51.026;5.468;2023-03-17T01:53:21;99910.50;;;10.72
53667;BMP280;39568;51.026;5.468;2023-03-17T01:55:49;99910.34;;;10.84
53667;BMP280;39568;51.026;5.468;2023-03-17T01:58:18;99898.59;;;10.73
53667;BMP280;39568;51.026;5.468;2023-03-17T02:00:47;99905.53;;;10.82
53667;BMP280;39568;51.026;5.468;2023-03-17T02:03:14;99906.38;;;10.71
53667;BMP280;39568;51.026;5.468;2023-03-17T02:05:42;99900.63;;;10.67
53667;BMP280;39568;51.026;5.468;2023-03-17T02:08:12;99886.69;;;10.61
53667;BMP280;39568;51.026;5.468;2023-03-17T02:10:40;99892.06;;;10.74
53667;BMP280;39568;51.026;5.468;2023-03-17T02:13:09;99889.84;;;10.60
53667;BMP280;39568;51.026;5.468;2023-03-17T02:15:37;99886.63;;;10.67
53667;BMP280;39568;51.026;5.468;2023-03-17T02:18:05;99883.66;;;10.52
53667;BMP280;39568;51.026;5.468;2023-03-17T02:23:37;99883.97;;;10.67
53667;BMP280;39568;51.026;5.468;2023-03-17T02:26:03;99884.16;;;10.69
53667;BMP280;39568;51.026;5.468;2023-03-17T02:28:32;99889.56;;;10.63
53667;BMP280;39568;51.026;5.468;2023-03-17T02:30:59;99879.94;;;10.60
53667;BMP280;39568;51.026;5.468;2023-03-17T02:33:27;99884.22;;;10.63
53667;BMP280;39568;51.026;5.468;2023-03-17T02:35:53;99881.50;;;10.69
53667;BMP280;39568;51.026;5.468;2023-03-17T02:38:20;99884.03;;;10.61
53667;BMP280;39568;51.026;5.468;2023-03-17T02:40:48;99876.59;;;10.73
53667;BMP280;39568;51.026;5.468;2023-03-17T02:43:15;99882.44;;;10.71
53667;BMP280;39568;51.026;5.468;2023-03-17T02:45:42;99879.78;;;10.71
53667;BMP280;39568;51.026;5.468;2023-03-17T02:48:09;99871.66;;;10.64
53667;BMP280;39568;51.026;5.468;2023-03-17T02:50:36;99873.66;;;10.58
53667;BMP280;39568;51.026;5.468;2023-03-17T02:53:02;99874.03;;;10.67
53667;BMP280;39568;51.026;5.468;2023-03-17T02:55:29;99864.13;;;10.68
53667;BMP280;39568;51.026;5.468;2023-03-17T02:57:57;99863.97;;;10.79
53667;BMP280;39568;51.026;5.468;2023-03-17T03:00:26;99857.94;;;10.78
53667;BMP280;39568;51.026;5.468;2023-03-17T03:02:53;99862.53;;;10.78
53667;BMP280;39568;51.026;5.468;2023-03-17T03:05:20;99861.50;;;10.81
53667;BMP280;39568;51.026;5.468;2023-03-17T03:07:46;99858.06;;;10.67
53667;BMP280;39568;51.026;5.468;2023-03-17T03:10:13;99866.41;;;10.58
53667;BMP280;39568;51.026;5.468;2023-03-17T03:12:40;99869.22;;;10.66
53667;BMP280;39568;51.026;5.468;2023-03-17T03:15:09;99871.25;;;10.60
53667;BMP280;39568;51.026;5.468;2023-03-17T03:17:36;99868.63;;;10.54
53667;BMP280;39568;51.026;5.468;2023-03-17T03:20:03;99873.59;;;10.63
53667;BMP280;39568;51.026;5.468;2023-03-17T03:22:30;99875.59;;;10.57
53667;BMP280;39568;51.026;5.468;2023-03-17T03:24:57;99874.31;;;10.64
53667;BMP280;39568;51.026;5.468;2023-03-17T03:27:24;99874.03;;;10.67
53667;BMP280;39568;51.026;5.468;2023-03-17T03:29:50;99870.94;;;10.63
53667;BMP280;39568;51.026;5.468;2023-03-17T03:32:18;99870.06;;;10.55
53667;BMP280;39568;51.026;5.468;2023-03-17T03:34:45;99868.13;;;10.56
53667;BMP280;39568;51.026;5.468;2023-03-17T03:37:12;99865.69;;;10.58
53667;BMP280;39568;51.026;5.468;2023-03-17T03:39:39;99869.97;;;10.42
53667;BMP280;39568;51.026;5.468;2023-03-17T03:42:06;99880.28;;;10.51
53667;BMP280;39568;51.026;5.468;2023-03-17T03:44:32;99886.09;;;10.50
53667;BMP280;39568;51.026;5.468;2023-03-17T03:46:59;99891.69;;;10.46
53667;BMP280;39568;51.026;5.468;2023-03-17T03:49:28;99880.63;;;10.42
53667;BMP280;39568;51.026;5.468;2023-03-17T03:51:55;99881.50;;;10.50
53667;BMP280;39568;51.026;5.468;2023-03-17T03:54:21;99876.69;;;10.49
53667;BMP280;39568;51.026;5.468;2023-03-17T03:56:48;99881.91;;;10.54
53667;BMP280;39568;51.026;5.468;2023-03-17T03:59:15;99886.81;;;10.50
53667;BMP280;39568;51.026;5.468;2023-03-17T04:01:41;99887.81;;;10.47
53667;BMP280;39568;51.026;5.468;2023-03-17T04:04:08;99892.22;;;10.45
53667;BMP280;39568;51.026;5.468;2023-03-17T04:06:36;99897.16;;;10.35
53667;BMP280;39568;51.026;5.468;2023-03-17T04:09:04;99907.31;;;10.31
53667;BMP280;39568;51.026;5.468;2023-03-17T04:11:30;99903.81;;;10.42
53667;BMP280;39568;51.026;5.468;2023-03-17T04:13:57;99896.13;;;10.38
53667;BMP280;39568;51.026;5.468;2023-03-17T04:16:24;99891.53;;;10.39
53667;BMP280;39568;51.026;5.468;2023-03-17T04:18:51;99894.91;;;10.39
53667;BMP280;39568;51.026;5.468;2023-03-17T04:21:17;99894.34;;;10.22
53667;BMP280;39568;51.026;5.468;2023-03-17T04:23:47;99899.50;;;10.14
53667;BMP280;39568;51.026;5.468;2023-03-17T04:26:13;99896.47;;;10.05
53667;BMP280;39568;51.026;5.468;2023-03-17T04:28:42;99902.72;;;10.07
53667;BMP280;39568;51.026;5.468;2023-03-17T04:31:10;99910.28;;;10.03
53667;BMP280;39568;51.026;5.468;2023-03-17T04:33:37;99902.25;;;10.09
53667;BMP280;39568;51.026;5.468;2023-03-17T04:36:05;99902.81;;;10.02
53667;BMP280;39568;51.026;5.468;2023-03-17T04:38:33;99903.13;;;9.93
53667;BMP280;39568;51.026;5.468;2023-03-17T04:41:01;99897.56;;;9.91
53667;BMP280;39568;51.026;5.468;2023-03-17T04:43:27;99901.91;;;9.94
53667;BMP280;39568;51.026;5.468;2023-03-17T04:45:54;99900.72;;;9.89
53667;BMP280;39568;51.026;5.468;2023-03-17T04:48:21;99884.44;;;10.04
53667;BMP280;39568;51.026;5.468;2023-03-17T04:50:47;99892.66;;;10.00
53667;BMP280;39568;51.026;5.468;2023-03-17T04:53:15;99893.50;;;10.14
53667;BMP280;39568;51.026;5.468;2023-03-17T04:55:42;99890.34;;;10.15
53667;BMP280;39568;51.026;5.468;2023-03-17T04:58:10;99898.03;;;10.19
53667;BMP280;39568;51.026;5.468;2023-03-17T05:00:37;99891.69;;;10.22
53667;BMP280;39568;51.026;5.468;2023-03-17T05:03:04;99897.25;;;10.24
53667;BMP280;39568;51.026;5.468;2023-03-17T05:05:31;99884.41;;;10.28
53667;BMP280;39568;51.026;5.468;2023-03-17T05:07:58;99882.75;;;10.25
53667;BMP280;39568;51.026;5.468;2023-03-17T05:10:25;99880.22;;;10.14
53667;BMP280;39568;51.026;5.468;2023-03-17T05:12:52;99877.44;;;10.25
53667;BMP280;39568;51.026;5.468;2023-03-17T05:15:20;99878.41;;;10.22
53667;BMP280;39568;51.026;5.468;2023-03-17T05:17:46;99885.75;;;10.16
53667;BMP280;39568;51.026;5.468;2023-03-17T05:20:13;99876.31;;;10.15
53667;BMP280;39568;51.026;5.468;2023-03-17T05:22:40;99882.44;;;10.10
53667;BMP280;39568;51.026;5.468;2023-03-17T05:25:07;99883.69;;;10.03
53667;BMP280;39568;51.026;5.468;2023-03-17T05:27:34;99886.56;;;10.05
53667;BMP280;39568;51.026;5.468;2023-03-17T05:30:02;99870.47;;;9.98
53667;BMP280;39568;51.026;5.468;2023-03-17T05:32:30;99877.38;;;10.06
53667;BMP280;39568;51.026;5.468;2023-03-17T05:34:57;99884.84;;;10.08
53667;BMP280;39568;51.026;5.468;2023-03-17T05:37:24;99873.22;;;10.11
53667;BMP280;39568;51.026;5.468;2023-03-17T05:39:51;99876.81;;;10.13
53667;BMP280;39568;51.026;5.468;2023-03-17T05:42:18;99888.50;;;10.05
53667;BMP280;39568;51.026;5.468;2023-03-17T05:44:44;99884.44;;;10.04
53667;BMP280;39568;51.026;5.468;2023-03-17T05:47:11;99885.47;;;9.95
53667;BMP280;39568;51.026;5.468;2023-03-17T05:49:39;99886.50;;;9.87
53667;BMP280;39568;51.026;5.468;2023-03-17T05:52:06;99891.28;;;9.94
53667;BMP280;39568;51.026;5.468;2023-03-17T05:54:33;99895.38;;;9.95
53667;BMP280;39568;51.026;5.468;2023-03-17T05:56:59;99904.34;;;9.92
53667;BMP280;39568;51.026;5.468;2023-03-17T05:59:27;99897.34;;;9.94
53667;BMP280;39568;51.026;5.468;2023-03-17T06:01:54;99899.03;;;9.92
53667;BMP280;39568;51.026;5.468;2023-03-17T06:04:20;99903.88;;;9.88
53667;BMP280;39568;51.026;5.468;2023-03-17T06:06:48;99891.28;;;9.94
53667;BMP280;39568;51.026;5.468;2023-03-17T06:09:15;99886.50;;;9.87
53667;BMP280;39568;51.026;5.468;2023-03-17T06:11:42;99884.63;;;9.82
53667;BMP280;39568;51.026;5.468;2023-03-17T06:14:09;99895.97;;;9.82
53667;BMP280;39568;51.026;5.468;2023-03-17T06:16:36;99889.13;;;9.92
53667;BMP280;39568;51.026;5.468;2023-03-17T06:19:03;99893.88;;;9.99
53667;BMP280;39568;51.026;5.468;2023-03-17T06:21:30;99893.81;;;10.05
53667;BMP280;39568;51.026;5.468;2023-03-17T06:23:58;99884.53;;;10.17
53667;BMP280;39568;51.026;5.468;2023-03-17T06:26:25;99886.22;;;10.14
53667;BMP280;39568;51.026;5.468;2023-03-17T06:28:52;99881.38;;;10.18
53667;BMP280;39568;51.026;5.468;2023-03-17T06:31:19;99897.75;;;10.23
53667;BMP280;39568;51.026;5.468;2023-03-17T06:33:46;99900.84;;;10.27
53667;BMP280;39568;51.026;5.468;2023-03-17T06:36:13;99900.56;;;10.30
53667;BMP280;39568;51.026;5.468;2023-03-17T06:38:41;99895.69;;;10.34
53667;BMP280;39568;51.026;5.468;2023-03-17T06:41:09;99894.00;;;10.37
53667;BMP280;39568;51.026;5.468;2023-03-17T06:43:36;99886.94;;;10.39
53667;BMP280;39568;51.026;5.468;2023-03-17T06:46:03;99900.84;;;10.51
53667;BMP280;39568;51.026;5.468;2023-03-17T06:48:30;99904.16;;;10.57
53667;BMP280;39568;51.026;5.468;2023-03-17T06:50:57;99904.38;;;10.59
53667;BMP280;39568;51.026;5.468;2023-03-17T06:53:23;99904.94;;;10.70
53667;BMP280;39568;51.026;5.468;2023-03-17T06:55:50;99921.34;;;10.74
53667;BMP280;39568;51.026;5.468;2023-03-17T06:58:18;99905.09;;;10.78
53667;BMP280;39568;51.026;5.468;2023-03-17T07:00:46;99903.66;;;10.96
53667;BMP280;39568;51.026;5.468;2023-03-17T07:03:13;99901.06;;;10.90
53667;BMP280;39568;51.026;5.468;2023-03-17T07:05:40;99897.09;;;10.97
53667;BMP280;39568;51.026;5.468;2023-03-17T07:08:07;99901.19;;;10.98
53667;BMP280;39568;51.026;5.468;2023-03-17T07:10:34;99893.22;;;10.98
53667;BMP280;39568;51.026;5.468;2023-03-17T07:13:01;99892.28;;;11.14
53667;BMP280;39568;51.026;5.468;2023-03-17T07:15:31;99901.34;;;11.05
53667;BMP280;39568;51.026;5.468;2023-03-17T07:18:00;99891.78;;;11.15
53667;BMP280;39568;51.026;5.468;2023-03-17T07:20:26;99886.88;;;11.32
53667;BMP280;39568;51.026;5.468;2023-03-17T07:22:53;99874.84;;;11.13
53667;BMP280;39568;51.026;5.468;2023-03-17T07:25:20;99886.28;;;11.26
53667;BMP280;39568;51.026;5.468;2023-03-17T07:27:47;99881.13;;;11.15
53667;BMP280;39568;51.026;5.468;2023-03-17T07:30:14;99885.44;;;11.50
53667;BMP280;39568;51.026;5.468;2023-03-17T07:32:44;99889.25;;;11.36
53667;BMP280;39568;51.026;5.468;2023-03-17T07:35:11;99877.53;;;11.44
53667;BMP280;39568;51.026;5.468;2023-03-17T07:37:38;99887.97;;;11.56
53667;BMP280;39568;51.026;5.468;2023-03-17T07:40:07;99880.75;;;11.69
53667;BMP280;39568;51.026;5.468;2023-03-17T07:42:34;99882.59;;;11.61
53667;BMP280;39568;51.026;5.468;2023-03-17T07:45:01;99887.09;;;11.79
53667;BMP280;39568;51.026;5.468;2023-03-17T07:47:28;99895.22;;;12.00
53667;BMP280;39568;51.026;5.468;2023-03-17T07:49:56;99911.41;;;12.15
53667;BMP280;39568;51.026;5.468;2023-03-17T07:52:23;99916.84;;;12.36
53667;BMP280;39568;51.026;5.468;2023-03-17T07:54:50;99923.72;;;12.18
53667;BMP280;39568;51.026;5.468;2023-03-17T07:57:17;99931.41;;;12.08
53667;BMP280;39568;51.026;5.468;2023-03-17T07:59:44;99918.50;;;12.26
53667;BMP280;39568;51.026;5.468;2023-03-17T08:02:14;99911.13;;;12.05
53667;BMP280;39568;51.026;5.468;2023-03-17T08:04:41;99907.19;;;12.06
53667;BMP280;39568;51.026;5.468;2023-03-17T08:07:10;99907.66;;;11.97
53667;BMP280;39568;51.026;5.468;2023-03-17T08:09:37;99901.88;;;12.06
53667;BMP280;39568;51.026;5.468;2023-03-17T08:12:04;99908.66;;;12.21
53667;BMP280;39568;51.026;5.468;2023-03-17T08:14:32;99912.97;;;12.11
53667;BMP280;39568;51.026;5.468;2023-03-17T08:16:59;99911.41;;;12.28
53667;BMP280;39568;51.026;5.468;2023-03-17T08:19:26;99907.63;;;12.24
53667;BMP280;39568;51.026;5.468;2023-03-17T08:21:53;99895.28;;;12.47
53667;BMP280;39568;51.026;5.468;2023-03-17T08:24:21;99886.06;;;12.22
53667;BMP280;39568;51.026;5.468;2023-03-17T08:26:48;99890.31;;;12.64
53667;BMP280;39568;51.026;5.468;2023-03-17T08:29:15;99913.56;;;13.10
53667;BMP280;39568;51.026;5.468;2023-03-17T08:31:43;99910.78;;;13.36
53667;BMP280;39568;51.026;5.468;2023-03-17T08:34:10;99921.38;;;13.29
53667;BMP280;39568;51.026;5.468;2023-03-17T08:36:36;99924.06;;;13.50
53667;BMP280;39568;51.026;5.468;2023-03-17T08:39:05;99906.56;;;13.69
53667;BMP280;39568;51.026;5.468;2023-03-17T08:41:33;99906.88;;;13.66
53667;BMP280;39568;51.026;5.468;2023-03-17T08:44:01;99913.94;;;13.56
53667;BMP280;39568;51.026;5.468;2023-03-17T08:46:30;99897.63;;;13.67
53667;BMP280;39568;51.026;5.468;2023-03-17T08:48:58;99890.94;;;13.53
53667;BMP280;39568;51.026;5.468;2023-03-17T08:51:28;99895.94;;;14.13
53667;BMP280;39568;51.026;5.468;2023-03-17T08:53:55;99895.75;;;14.69
53667;BMP280;39568;51.026;5.468;2023-03-17T08:56:23;99884.34;;;14.91
53667;BMP280;39568;51.026;5.468;2023-03-17T08:58:52;99896.69;;;15.09
53667;BMP280;39568;51.026;5.468;2023-03-17T09:01:19;99897.22;;;15.23
53667;BMP280;39568;51.026;5.468;2023-03-17T09:03:47;99890.78;;;14.96
53667;BMP280;39568;51.026;5.468;2023-03-17T09:06:15;99894.38;;;15.06
53667;BMP280;39568;51.026;5.468;2023-03-17T09:08:42;99891.50;;;15.11
53667;BMP280;39568;51.026;5.468;2023-03-17T09:11:13;99881.84;;;15.46
53667;BMP280;39568;51.026;5.468;2023-03-17T09:13:42;99896.84;;;15.26
53667;BMP280;39568;51.026;5.468;2023-03-17T09:16:11;99912.22;;;15.11
53667;BMP280;39568;51.026;5.468;2023-03-17T09:18:38;99911.47;;;14.80
53667;BMP280;39568;51.026;5.468;2023-03-17T09:21:05;99928.97;;;14.81
53667;BMP280;39568;51.026;5.468;2023-03-17T09:23:33;99908.19;;;14.51
53667;BMP280;39568;51.026;5.468;2023-03-17T09:26:00;99906.50;;;14.26
53667;BMP280;39568;51.026;5.468;2023-03-17T09:28:27;99919.66;;;14.59
53667;BMP280;39568;51.026;5.468;2023-03-17T09:30:56;99908.44;;;14.91
53667;BMP280;39568;51.026;5.468;2023-03-17T09:33:24;99918.28;;;15.04
53667;BMP280;39568;51.026;5.468;2023-03-17T09:35:51;99903.50;;;14.37
53667;BMP280;39568;51.026;5.468;2023-03-17T09:38:18;99908.59;;;14.63
53667;BMP280;39568;51.026;5.468;2023-03-17T09:40:49;99902.50;;;14.62
53667;BMP280;39568;51.026;5.468;2023-03-17T09:43:23;99920.38;;;14.67
53667;BMP280;39568;51.026;5.468;2023-03-17T09:45:52;99913.63;;;14.97
53667;BMP280;39568;51.026;5.468;2023-03-17T09:48:37;99904.53;;;14.92
53667;BMP280;39568;51.026;5.468;2023-03-17T09:51:09;99917.56;;;14.96
53667;BMP280;39568;51.026;5.468;2023-03-17T09:53:44;99919.28;;;14.63
53667;BMP280;39568;51.026;5.468;2023-03-17T09:56:15;99919.69;;;14.82
53667;BMP280;39568;51.026;5.468;2023-03-17T09:58:47;99921.25;;;14.62
53667;BMP280;39568;51.026;5.468;2023-03-17T10:01:15;99930.47;;;14.46
53667;BMP280;39568;51.026;5.468;2023-03-17T10:03:43;99917.53;;;14.81
53667;BMP280;39568;51.026;5.468;2023-03-17T10:06:20;99901.13;;;14.92
53667;BMP280;39568;51.026;5.468;2023-03-17T10:08:54;99904.38;;;15.20
53667;BMP280;39568;51.026;5.468;2023-03-17T10:11:31;99894.72;;;15.25
53667;BMP280;39568;51.026;5.468;2023-03-17T10:14:02;99905.44;;;15.32
53667;BMP280;39568;51.026;5.468;2023-03-17T10:16:37;99904.31;;;15.73
53667;BMP280;39568;51.026;5.468;2023-03-17T10:19:15;99921.63;;;15.80
53667;BMP280;39568;51.026;5.468;2023-03-17T10:21:47;99919.38;;;15.38
53667;BMP280;39568;51.026;5.468;2023-03-17T10:24:16;99910.78;;;15.47
53667;BMP280;39568;51.026;5.468;2023-03-17T10:26:46;99911.25;;;15.84
53667;BMP280;39568;51.026;5.468;2023-03-17T10:29:17;99916.53;;;15.29
53667;BMP280;39568;51.026;5.468;2023-03-17T10:31:45;99922.38;;;15.50
53667;BMP280;39568;51.026;5.468;2023-03-17T10:34:15;99905.63;;;16.04
53667;BMP280;39568;51.026;5.468;2023-03-17T10:36:45;99909.59;;;17.34
53667;BMP280;39568;51.026;5.468;2023-03-17T10:39:13;99903.59;;;17.60
53667;BMP280;39568;51.026;5.468;2023-03-17T10:41:50;99912.28;;;17.34
53667;BMP280;39568;51.026;5.468;2023-03-17T10:44:21;99885.56;;;17.53
53667;BMP280;39568;51.026;5.468;2023-03-17T10:46:52;99887.88;;;17.40
53667;BMP280;39568;51.026;5.468;2023-03-17T10:49:21;99882.25;;;17.80
53667;BMP280;39568;51.026;5.468;2023-03-17T10:51:50;99883.19;;;17.23
53667;BMP280;39568;51.026;5.468;2023-03-17T10:54:19;99899.78;;;17.29
53667;BMP280;39568;51.026;5.468;2023-03-17T10:56:48;99881.59;;;18.42
53667;BMP280;39568;51.026;5.468;2023-03-17T10:59:17;99878.34;;;18.17
53667;BMP280;39568;51.026;5.468;2023-03-17T11:01:49;99884.75;;;17.95
53667;BMP280;39568;51.026;5.468;2023-03-17T11:04:25;99871.91;;;18.66
53667;BMP280;39568;51.026;5.468;2023-03-17T11:06:55;99882.81;;;18.68
53667;BMP280;39568;51.026;5.468;2023-03-17T11:09:23;99872.81;;;18.97
53667;BMP280;39568;51.026;5.468;2023-03-17T11:12:00;99877.53;;;18.60
53667;BMP280;39568;51.026;5.468;2023-03-17T11:14:27;99866.34;;;18.54
53667;BMP280;39568;51.026;5.468;2023-03-17T11:16:55;99872.69;;;18.49
53667;BMP280;39568;51.026;5.468;2023-03-17T11:19:28;99862.72;;;18.97
53667;BMP280;39568;51.026;5.468;2023-03-17T11:22:02;99870.06;;;18.68
53667;BMP280;39568;51.026;5.468;2023-03-17T11:24:31;99871.81;;;18.46
53667;BMP280;39568;51.026;5.468;2023-03-17T11:27:05;99867.97;;;18.95
53667;BMP280;39568;51.026;5.468;2023-03-17T11:29:47;99863.03;;;19.01
53667;BMP280;39568;51.026;5.468;2023-03-17T11:32:25;99861.31;;;19.44
53667;BMP280;39568;51.026;5.468;2023-03-17T11:35:06;99854.66;;;18.88
53667;BMP280;39568;51.026;5.468;2023-03-17T11:37:54;99861.19;;;19.52
53667;BMP280;39568;51.026;5.468;2023-03-17T11:40:28;99854.06;;;18.99
53667;BMP280;39568;51.026;5.468;2023-03-17T11:43:07;99847.09;;;18.77
53667;BMP280;39568;51.026;5.468;2023-03-17T11:45:41;99832.16;;;19.71
53667;BMP280;39568;51.026;5.468;2023-03-17T11:48:26;99847.56;;;19.02
53667;BMP280;39568;51.026;5.468;2023-03-17T11:51:02;99846.94;;;19.80
53667;BMP280;39568;51.026;5.468;2023-03-17T11:53:54;99844.66;;;20.47
53667;BMP280;39568;51.026;5.468;2023-03-17T11:56:25;99843.47;;;20.29
53667;BMP280;39568;51.026;5.468;2023-03-17T11:58:57;99845.69;;;20.42
53667;BMP280;39568;51.026;5.468;2023-03-17T12:01:28;99846.03;;;19.96
53667;BMP280;39568;51.026;5.468;2023-03-17T12:04:02;99859.81;;;20.31
53667;BMP280;39568;51.026;5.468;2023-03-17T12:06:37;99848.16;;;19.19
53667;BMP280;39568;51.026;5.468;2023-03-17T12:09:10;99845.25;;;18.79
53667;BMP280;39568;51.026;5.468;2023-03-17T12:11:42;99838.03;;;19.49
53667;BMP280;39568;51.026;5.468;2023-03-17T12:14:22;99845.22;;;20.15
53667;BMP280;39568;51.026;5.468;2023-03-17T12:16:59;99839.84;;;19.65
53667;BMP280;39568;51.026;5.468;2023-03-17T12:19:34;99857.91;;;20.43
53667;BMP280;39568;51.026;5.468;2023-03-17T12:22:10;99846.16;;;20.60
53667;BMP280;39568;51.026;5.468;2023-03-17T12:24:40;99840.56;;;19.66
53667;BMP280;39568;51.026;5.468;2023-03-17T12:27:12;99851.94;;;18.97
53667;BMP280;39568;51.026;5.468;2023-03-17T12:29:42;99844.13;;;19.20
53667;BMP280;39568;51.026;5.468;2023-03-17T12:32:17;99839.88;;;18.89
53667;BMP280;39568;51.026;5.468;2023-03-17T12:34:49;99832.28;;;19.83
53667;BMP280;39568;51.026;5.468;2023-03-17T12:37:17;99841.97;;;20.17
53667;BMP280;39568;51.026;5.468;2023-03-17T12:39:51;99837.00;;;20.13
53667;BMP280;39568;51.026;5.468;2023-03-17T12:42:30;99837.03;;;19.44
53667;BMP280;39568;51.026;5.468;2023-03-17T12:45:20;99835.66;;;19.24
53667;BMP280;39568;51.026;5.468;2023-03-17T12:48:16;99833.22;;;18.99
53667;BMP280;39568;51.026;5.468;2023-03-17T12:51:00;99825.00;;;19.36
53667;BMP280;39568;51.026;5.468;2023-03-17T12:53:33;99828.97;;;19.94
53667;BMP280;39568;51.026;5.468;2023-03-17T12:56:10;99832.44;;;19.85
53667;BMP280;39568;51.026;5.468;2023-03-17T12:58:38;99832.19;;;19.62
53667;BMP280;39568;51.026;5.468;2023-03-17T13:01:14;99826.09;;;19.61
53667;BMP280;39568;51.026;5.468;2023-03-17T13:03:57;99843.84;;;19.07
53667;BMP280;39568;51.026;5.468;2023-03-17T13:06:23;99822.44;;;18.99
53667;BMP280;39568;51.026;5.468;2023-03-17T13:08:52;99811.78;;;19.30
53667;BMP280;39568;51.026;5.468;2023-03-17T13:11:25;99815.34;;;19.23
53667;BMP280;39568;51.026;5.468;2023-03-17T13:14:06;99827.56;;;19.14
53667;BMP280;39568;51.026;5.468;2023-03-17T13:16:40;99811.44;;;19.64
53667;BMP280;39568;51.026;5.468;2023-03-17T13:19:18;99810.34;;;19.98
53667;BMP280;39568;51.026;5.468;2023-03-17T13:21:56;99813.50;;;20.25
53667;BMP280;39568;51.026;5.468;2023-03-17T13:24:45;99804.25;;;20.70
53667;BMP280;39568;51.026;5.468;2023-03-17T13:27:14;99808.00;;;20.44
53667;BMP280;39568;51.026;5.468;2023-03-17T13:33:01;99800.44;;;20.22
53667;BMP280;39568;51.026;5.468;2023-03-17T13:35:49;99790.00;;;20.28
53667;BMP280;39568;51.026;5.468;2023-03-17T13:38:31;99808.06;;;21.54
53667;BMP280;39568;51.026;5.468;2023-03-17T13:46:44;99782.59;;;21.36
53667;BMP280;39568;51.026;5.468;2023-03-17T13:49:22;99772.53;;;21.71
53667;BMP280;39568;51.026;5.468;2023-03-17T13:51:51;99767.16;;;22.67
53667;BMP280;39568;51.026;5.468;2023-03-17T13:54:21;99764.31;;;21.80
53667;BMP280;39568;51.026;5.468;2023-03-17T13:56:56;99761.69;;;22.79
53667;BMP280;39568;51.026;5.468;2023-03-17T13:59:34;99760.13;;;22.51
53667;BMP280;39568;51.026;5.468;2023-03-17T14:02:11;99761.69;;;21.59
53667;BMP280;39568;51.026;5.468;2023-03-17T14:04:46;99788.28;;;20.32
53667;BMP280;39568;51.026;5.468;2023-03-17T14:07:20;99777.94;;;19.98
53667;BMP280;39568;51.026;5.468;2023-03-17T14:09:50;99798.06;;;20.06
53667;BMP280;39568;51.026;5.468;2023-03-17T14:12:26;99787.81;;;19.84
53667;BMP280;39568;51.026;5.468;2023-03-17T14:14:58;99781.84;;;20.16
53667;BMP280;39568;51.026;5.468;2023-03-17T14:17:32;99788.75;;;19.58
53667;BMP280;39568;51.026;5.468;2023-03-17T14:20:05;99798.59;;;19.05
53667;BMP280;39568;51.026;5.468;2023-03-17T14:22:39;99775.63;;;19.23
53667;BMP280;39568;51.026;5.468;2023-03-17T14:25:14;99775.72;;;19.45
53667;BMP280;39568;51.026;5.468;2023-03-17T14:27:44;99776.00;;;19.29
53667;BMP280;39568;51.026;5.468;2023-03-17T14:30:17;99777.97;;;19.48
53667;BMP280;39568;51.026;5.468;2023-03-17T14:32:46;99772.06;;;19.11
53667;BMP280;39568;51.026;5.468;2023-03-17T14:35:14;99765.97;;;18.82
53667;BMP280;39568;51.026;5.468;2023-03-17T14:37:41;99763.78;;;19.38